sensor_id;sensor_type;location;lat;lon;timestamp;P1;durP1;ratioP1;P2;durP2;ratioP2
45548;SDS011;31270;48.328;10.096;2023-05-02T00:01:26;9.07;;;7.93;;
45548;SDS011;31270;48.328;10.096;2023-05-02T00:03:51;10.17;;;7.37;;
45548;SDS011;31270;48.328;10.096;2023-05-02T00:06:17;11.13;;;7.53;;
45548;SDS011;31270;48.328;10.096;2023-05-02T00:08:43;11.20;;;7.37;;
45548;SDS011;31270;48.328;10.096;2023-05-02T00:11:08;9.90;;;7.67;;
45548;SDS011;31270;48.328;10.096;2023-05-02T00:13:34;10.53;;;8.07;;
45548;SDS011;31270;48.328;10.096;2023-05-02T00:16:00;9.13;;;8.00;;
45548;SDS011;31270;48.328;10.096;2023-05-02T00:18:26;12.00;;;8.03;;
45548;SDS011;31270;48.328;10.096;2023-05-02T00:20:52;10.40;;;8.17;;
45548;SDS011;31270;48.328;10.096;2023-05-02T00:23:17;10.37;;;7.37;;
45548;SDS011;31270;48.328;10.096;2023-05-02T00:25:44;9.53;;;7.97;;
45548;SDS011;31270;48.328;10.096;2023-05-02T00:28:10;11.50;;;7.87;;
45548;SDS011;31270;48.328;10.096;2023-05-02T00:30:35;10.97;;;7.67;;
45548;SDS011;31270;48.328;10.096;2023-05-02T00:33:05;10.50;;;7.53;;
45548;SDS011;31270;48.328;10.096;2023-05-02T00:35:32;10.70;;;8.20;;
45548;SDS011;31270;48.328;10.096;2023-05-02T00:37:58;10.10;;;7.80;;
45548;SDS011;31270;48.328;10.096;2023-05-02T00:40:24;10.20;;;7.80;;
45548;SDS011;31270;48.328;10.096;2023-05-02T00:42:49;9.13;;;7.53;;
45548;SDS011;31270;48.328;10.096;2023-05-02T00:45:15;11.27;;;8.97;;
45548;SDS011;31270;48.328;10.096;2023-05-02T00:47:42;10.70;;;8.40;;
45548;SDS011;31270;48.328;10.096;2023-05-02T00:50:08;10.63;;;8.53;;
45548;SDS011;31270;48.328;10.096;2023-05-02T00:52:33;12.40;;;8.50;;
45548;SDS011;31270;48.328;10.096;2023-05-02T00:55:00;11.27;;;8.37;;
45548;SDS011;31270;48.328;10.096;2023-05-02T00:57:27;13.33;;;8.67;;
45548;SDS011;31270;48.328;10.096;2023-05-02T00:59:52;12.83;;;8.90;;
45548;SDS011;31270;48.328;10.096;2023-05-02T01:02:25;13.93;;;9.43;;
45548;SDS011;31270;48.328;10.096;2023-05-02T01:05:05;12.57;;;8.47;;
45548;SDS011;31270;48.328;10.096;2023-05-02T01:07:47;11.70;;;8.43;;
45548;SDS011;31270;48.328;10.096;2023-05-02T01:13:20;11.80;;;9.23;;
45548;SDS011;31270;48.328;10.096;2023-05-02T01:15:50;12.47;;;9.73;;
45548;SDS011;31270;48.328;10.096;2023-05-02T01:18:20;15.30;;;10.17;;
45548;SDS011;31270;48.328;10.096;2023-05-02T01:20:56;13.07;;;9.53;;
45548;SDS011;31270;48.328;10.096;2023-05-02T01:23:42;13.33;;;9.43;;
45548;SDS011;31270;48.328;10.096;2023-05-02T01:26:31;11.67;;;9.07;;
45548;SDS011;31270;48.328;10.096;2023-05-02T01:29:13;14.73;;;8.63;;
45548;SDS011;31270;48.328;10.096;2023-05-02T01:31:41;12.93;;;9.60;;
45548;SDS011;31270;48.328;10.096;2023-05-02T01:34:09;14.10;;;9.43;;
45548;SDS011;31270;48.328;10.096;2023-05-02T01:36:37;13.40;;;9.43;;
45548;SDS011;31270;48.328;10.096;2023-05-02T01:39:08;10.93;;;8.80;;
45548;SDS011;31270;48.328;10.096;2023-05-02T01:41:36;14.93;;;10.00;;
45548;SDS011;31270;48.328;10.096;2023-05-02T01:44:03;12.90;;;9.37;;
45548;SDS011;31270;48.328;10.096;2023-05-02T01:46:30;13.33;;;9.93;;
45548;SDS011;31270;48.328;10.096;2023-05-02T01:49:00;14.87;;;9.60;;
45548;SDS011;31270;48.328;10.096;2023-05-02T01:51:31;14.77;;;9.37;;
45548;SDS011;31270;48.328;10.096;2023-05-02T01:54:00;12.20;;;9.07;;
45548;SDS011;31270;48.328;10.096;2023-05-02T01:56:30;14.73;;;10.50;;
45548;SDS011;31270;48.328;10.096;2023-05-02T01:58:58;14.00;;;9.93;;
45548;SDS011;31270;48.328;10.096;2023-05-02T02:01:27;14.63;;;10.37;;
45548;SDS011;31270;48.328;10.096;2023-05-02T02:03:55;13.17;;;9.57;;
45548;SDS011;31270;48.328;10.096;2023-05-02T02:06:22;13.10;;;9.50;;
45548;SDS011;31270;48.328;10.096;2023-05-02T02:08:48;13.47;;;9.57;;
45548;SDS011;31270;48.328;10.096;2023-05-02T02:11:20;15.00;;;10.27;;
45548;SDS011;31270;48.328;10.096;2023-05-02T02:13:52;13.50;;;9.63;;
45548;SDS011;31270;48.328;10.096;2023-05-02T02:16:32;13.33;;;9.70;;
45548;SDS011;31270;48.328;10.096;2023-05-02T02:19:03;12.53;;;9.40;;
45548;SDS011;31270;48.328;10.096;2023-05-02T02:21:32;12.87;;;9.57;;
45548;SDS011;31270;48.328;10.096;2023-05-02T02:23:59;14.20;;;10.07;;
45548;SDS011;31270;48.328;10.096;2023-05-02T02:26:28;12.67;;;9.50;;
45548;SDS011;31270;48.328;10.096;2023-05-02T02:28:54;15.13;;;9.70;;
45548;SDS011;31270;48.328;10.096;2023-05-02T02:31:20;14.67;;;9.83;;
45548;SDS011;31270;48.328;10.096;2023-05-02T02:33:46;14.67;;;9.90;;
45548;SDS011;31270;48.328;10.096;2023-05-02T02:36:23;14.37;;;9.73;;
45548;SDS011;31270;48.328;10.096;2023-05-02T02:41:46;12.70;;;9.53;;
45548;SDS011;31270;48.328;10.096;2023-05-02T02:44:40;13.93;;;9.47;;
45548;SDS011;31270;48.328;10.096;2023-05-02T02:48:24;13.47;;;9.93;;
45548;SDS011;31270;48.328;10.096;2023-05-02T02:53:32;14.33;;;10.10;;
45548;SDS011;31270;48.328;10.096;2023-05-02T02:56:12;13.07;;;9.40;;
45548;SDS011;31270;48.328;10.096;2023-05-02T03:01:31;13.33;;;9.70;;
45548;SDS011;31270;48.328;10.096;2023-05-02T03:04:00;13.50;;;9.97;;
45548;SDS011;31270;48.328;10.096;2023-05-02T03:06:29;14.50;;;10.33;;
45548;SDS011;31270;48.328;10.096;2023-05-02T03:08:55;13.60;;;9.83;;
45548;SDS011;31270;48.328;10.096;2023-05-02T03:11:21;14.67;;;10.27;;
45548;SDS011;31270;48.328;10.096;2023-05-02T03:13:47;14.57;;;10.20;;
45548;SDS011;31270;48.328;10.096;2023-05-02T03:16:24;15.13;;;10.73;;
45548;SDS011;31270;48.328;10.096;2023-05-02T03:18:59;19.90;;;10.67;;
45548;SDS011;31270;48.328;10.096;2023-05-02T03:21:24;18.93;;;11.83;;
45548;SDS011;31270;48.328;10.096;2023-05-02T03:23:50;15.10;;;10.83;;
45548;SDS011;31270;48.328;10.096;2023-05-02T03:26:16;14.90;;;10.77;;
45548;SDS011;31270;48.328;10.096;2023-05-02T03:28:42;14.57;;;11.13;;
45548;SDS011;31270;48.328;10.096;2023-05-02T03:31:11;14.53;;;10.53;;
45548;SDS011;31270;48.328;10.096;2023-05-02T03:33:37;13.87;;;10.73;;
45548;SDS011;31270;48.328;10.096;2023-05-02T03:36:03;15.10;;;10.87;;
45548;SDS011;31270;48.328;10.096;2023-05-02T03:38:29;14.30;;;10.90;;
45548;SDS011;31270;48.328;10.096;2023-05-02T03:40:57;16.17;;;11.40;;
45548;SDS011;31270;48.328;10.096;2023-05-02T03:43:23;14.00;;;10.50;;
45548;SDS011;31270;48.328;10.096;2023-05-02T03:45:49;17.07;;;11.67;;
45548;SDS011;31270;48.328;10.096;2023-05-02T03:48:14;16.30;;;11.03;;
45548;SDS011;31270;48.328;10.096;2023-05-02T03:50:40;17.50;;;11.70;;
45548;SDS011;31270;48.328;10.096;2023-05-02T03:53:07;16.27;;;11.83;;
45548;SDS011;31270;48.328;10.096;2023-05-02T03:55:38;20.80;;;12.93;;
45548;SDS011;31270;48.328;10.096;2023-05-02T03:58:04;17.60;;;11.93;;
45548;SDS011;31270;48.328;10.096;2023-05-02T04:00:30;15.87;;;11.23;;
45548;SDS011;31270;48.328;10.096;2023-05-02T04:02:56;16.93;;;12.20;;
45548;SDS011;31270;48.328;10.096;2023-05-02T04:05:22;17.90;;;11.97;;
45548;SDS011;31270;48.328;10.096;2023-05-02T04:07:47;18.03;;;11.83;;
45548;SDS011;31270;48.328;10.096;2023-05-02T04:10:13;17.27;;;11.77;;
45548;SDS011;31270;48.328;10.096;2023-05-02T04:12:41;16.23;;;11.90;;
45548;SDS011;31270;48.328;10.096;2023-05-02T04:15:07;19.47;;;13.20;;
45548;SDS011;31270;48.328;10.096;2023-05-02T04:17:37;18.97;;;13.40;;
45548;SDS011;31270;48.328;10.096;2023-05-02T04:20:03;19.93;;;13.50;;
45548;SDS011;31270;48.328;10.096;2023-05-02T04:22:30;18.50;;;12.97;;
45548;SDS011;31270;48.328;10.096;2023-05-02T04:24:56;19.37;;;13.37;;
45548;SDS011;31270;48.328;10.096;2023-05-02T04:27:21;21.03;;;14.13;;
45548;SDS011;31270;48.328;10.096;2023-05-02T04:29:47;18.73;;;13.03;;
45548;SDS011;31270;48.328;10.096;2023-05-02T04:32:14;19.97;;;13.43;;
45548;SDS011;31270;48.328;10.096;2023-05-02T04:34:40;19.40;;;13.67;;
45548;SDS011;31270;48.328;10.096;2023-05-02T04:37:06;21.53;;;13.17;;
45548;SDS011;31270;48.328;10.096;2023-05-02T04:39:34;22.47;;;14.03;;
45548;SDS011;31270;48.328;10.096;2023-05-02T04:42:00;19.43;;;13.57;;
45548;SDS011;31270;48.328;10.096;2023-05-02T04:44:26;21.97;;;13.70;;
45548;SDS011;31270;48.328;10.096;2023-05-02T04:46:51;22.87;;;14.37;;
45548;SDS011;31270;48.328;10.096;2023-05-02T04:49:17;23.80;;;13.90;;
45548;SDS011;31270;48.328;10.096;2023-05-02T04:51:43;25.07;;;14.93;;
45548;SDS011;31270;48.328;10.096;2023-05-02T04:54:09;23.50;;;15.13;;
45548;SDS011;31270;48.328;10.096;2023-05-02T04:56:38;23.57;;;14.17;;
45548;SDS011;31270;48.328;10.096;2023-05-02T04:59:07;24.03;;;14.73;;
45548;SDS011;31270;48.328;10.096;2023-05-02T05:01:33;21.63;;;14.30;;
45548;SDS011;31270;48.328;10.096;2023-05-02T05:03:58;23.37;;;15.63;;
45548;SDS011;31270;48.328;10.096;2023-05-02T05:06:24;29.47;;;16.20;;
45548;SDS011;31270;48.328;10.096;2023-05-02T05:08:50;24.20;;;15.10;;
45548;SDS011;31270;48.328;10.096;2023-05-02T05:11:15;24.10;;;15.30;;
45548;SDS011;31270;48.328;10.096;2023-05-02T05:13:41;24.60;;;15.90;;
45548;SDS011;31270;48.328;10.096;2023-05-02T05:16:10;26.13;;;17.70;;
45548;SDS011;31270;48.328;10.096;2023-05-02T05:18:46;26.50;;;17.53;;
45548;SDS011;31270;48.328;10.096;2023-05-02T05:21:13;26.93;;;16.37;;
45548;SDS011;31270;48.328;10.096;2023-05-02T05:23:38;28.80;;;16.77;;
45548;SDS011;31270;48.328;10.096;2023-05-02T05:28:36;31.40;;;17.00;;
45548;SDS011;31270;48.328;10.096;2023-05-02T05:31:08;29.50;;;17.70;;
45548;SDS011;31270;48.328;10.096;2023-05-02T05:33:40;28.90;;;17.10;;
45548;SDS011;31270;48.328;10.096;2023-05-02T05:36:09;27.57;;;17.00;;
45548;SDS011;31270;48.328;10.096;2023-05-02T05:38:36;28.37;;;16.53;;
45548;SDS011;31270;48.328;10.096;2023-05-02T05:41:03;44.93;;;17.53;;
45548;SDS011;31270;48.328;10.096;2023-05-02T05:43:31;45.70;;;17.90;;
45548;SDS011;31270;48.328;10.096;2023-05-02T05:45:57;27.90;;;15.57;;
45548;SDS011;31270;48.328;10.096;2023-05-02T05:48:22;54.87;;;17.07;;
45548;SDS011;31270;48.328;10.096;2023-05-02T05:50:48;23.33;;;16.10;;
45548;SDS011;31270;48.328;10.096;2023-05-02T05:53:14;24.90;;;17.60;;
45548;SDS011;31270;48.328;10.096;2023-05-02T05:55:40;24.87;;;16.80;;
45548;SDS011;31270;48.328;10.096;2023-05-02T05:58:06;27.30;;;18.33;;
45548;SDS011;31270;48.328;10.096;2023-05-02T06:00:33;27.90;;;16.87;;
45548;SDS011;31270;48.328;10.096;2023-05-02T06:03:03;26.23;;;16.80;;
45548;SDS011;31270;48.328;10.096;2023-05-02T06:05:28;25.60;;;17.13;;
45548;SDS011;31270;48.328;10.096;2023-05-02T06:07:56;26.03;;;18.57;;
45548;SDS011;31270;48.328;10.096;2023-05-02T06:10:22;28.07;;;18.87;;
45548;SDS011;31270;48.328;10.096;2023-05-02T06:12:48;28.70;;;18.77;;
45548;SDS011;31270;48.328;10.096;2023-05-02T06:15:14;33.87;;;17.70;;
45548;SDS011;31270;48.328;10.096;2023-05-02T06:17:40;25.40;;;17.60;;
45548;SDS011;31270;48.328;10.096;2023-05-02T06:20:06;24.93;;;17.70;;
45548;SDS011;31270;48.328;10.096;2023-05-02T06:22:33;27.33;;;18.17;;
45548;SDS011;31270;48.328;10.096;2023-05-02T06:24:59;26.97;;;18.03;;
45548;SDS011;31270;48.328;10.096;2023-05-02T06:27:25;27.77;;;18.77;;
45548;SDS011;31270;48.328;10.096;2023-05-02T06:29:51;23.93;;;17.67;;
45548;SDS011;31270;48.328;10.096;2023-05-02T06:32:17;25.00;;;17.83;;
45548;SDS011;31270;48.328;10.096;2023-05-02T06:34:43;23.43;;;16.17;;
45548;SDS011;31270;48.328;10.096;2023-05-02T06:37:09;23.60;;;16.77;;
45548;SDS011;31270;48.328;10.096;2023-05-02T06:39:35;24.40;;;15.23;;
45548;SDS011;31270;48.328;10.096;2023-05-02T06:42:01;23.10;;;16.10;;
45548;SDS011;31270;48.328;10.096;2023-05-02T06:44:28;23.67;;;15.97;;
45548;SDS011;31270;48.328;10.096;2023-05-02T06:46:54;20.40;;;14.70;;
45548;SDS011;31270;48.328;10.096;2023-05-02T06:49:20;19.00;;;14.83;;
45548;SDS011;31270;48.328;10.096;2023-05-02T06:51:47;17.23;;;14.13;;
45548;SDS011;31270;48.328;10.096;2023-05-02T06:54:12;18.83;;;14.10;;
45548;SDS011;31270;48.328;10.096;2023-05-02T06:56:39;18.20;;;13.87;;
45548;SDS011;31270;48.328;10.096;2023-05-02T06:59:05;17.53;;;13.60;;
45548;SDS011;31270;48.328;10.096;2023-05-02T07:01:31;18.53;;;14.50;;
45548;SDS011;31270;48.328;10.096;2023-05-02T07:03:57;18.23;;;13.93;;
45548;SDS011;31270;48.328;10.096;2023-05-02T07:06:22;17.17;;;13.40;;
45548;SDS011;31270;48.328;10.096;2023-05-02T07:08:48;17.10;;;13.33;;
45548;SDS011;31270;48.328;10.096;2023-05-02T07:11:14;17.07;;;13.47;;
45548;SDS011;31270;48.328;10.096;2023-05-02T07:13:40;17.33;;;13.80;;
45548;SDS011;31270;48.328;10.096;2023-05-02T07:16:06;18.47;;;13.20;;
45548;SDS011;31270;48.328;10.096;2023-05-02T07:18:32;15.77;;;13.10;;
45548;SDS011;31270;48.328;10.096;2023-05-02T07:20:57;18.27;;;13.50;;
45548;SDS011;31270;48.328;10.096;2023-05-02T07:23:24;17.07;;;13.53;;
45548;SDS011;31270;48.328;10.096;2023-05-02T07:25:50;16.83;;;13.50;;
45548;SDS011;31270;48.328;10.096;2023-05-02T07:28:16;16.33;;;12.97;;
45548;SDS011;31270;48.328;10.096;2023-05-02T07:30:41;15.23;;;12.20;;
45548;SDS011;31270;48.328;10.096;2023-05-02T07:33:07;16.27;;;12.70;;
45548;SDS011;31270;48.328;10.096;2023-05-02T07:35:33;15.73;;;11.65;;
45548;SDS011;31270;48.328;10.096;2023-05-02T07:37:59;14.00;;;11.60;;
45548;SDS011;31270;48.328;10.096;2023-05-02T07:40:25;18.17;;;12.65;;
45548;SDS011;31270;48.328;10.096;2023-05-02T07:42:51;16.50;;;12.70;;
45548;SDS011;31270;48.328;10.096;2023-05-02T07:45:16;16.80;;;12.75;;
45548;SDS011;31270;48.328;10.096;2023-05-02T07:47:44;17.58;;;12.10;;
45548;SDS011;31270;48.328;10.096;2023-05-02T07:50:11;14.55;;;12.07;;
45548;SDS011;31270;48.328;10.096;2023-05-02T07:52:37;17.63;;;12.60;;
45548;SDS011;31270;48.328;10.096;2023-05-02T07:55:03;15.98;;;12.55;;
45548;SDS011;31270;48.328;10.096;2023-05-02T07:57:29;16.63;;;13.10;;
45548;SDS011;31270;48.328;10.096;2023-05-02T07:59:55;16.02;;;13.35;;
45548;SDS011;31270;48.328;10.096;2023-05-02T08:02:21;18.17;;;12.50;;
45548;SDS011;31270;48.328;10.096;2023-05-02T08:04:48;13.68;;;11.73;;
45548;SDS011;31270;48.328;10.096;2023-05-02T08:07:14;16.25;;;12.82;;
45548;SDS011;31270;48.328;10.096;2023-05-02T08:09:39;16.15;;;13.00;;
45548;SDS011;31270;48.328;10.096;2023-05-02T08:12:05;17.27;;;13.23;;
45548;SDS011;31270;48.328;10.096;2023-05-02T08:14:31;14.82;;;12.93;;
45548;SDS011;31270;48.328;10.096;2023-05-02T08:16:58;14.38;;;12.52;;
45548;SDS011;31270;48.328;10.096;2023-05-02T08:19:24;16.50;;;13.48;;
45548;SDS011;31270;48.328;10.096;2023-05-02T08:21:51;16.58;;;13.93;;
45548;SDS011;31270;48.328;10.096;2023-05-02T08:24:18;17.10;;;14.65;;
45548;SDS011;31270;48.328;10.096;2023-05-02T08:26:43;18.35;;;14.63;;
45548;SDS011;31270;48.328;10.096;2023-05-02T08:29:09;20.38;;;15.40;;
45548;SDS011;31270;48.328;10.096;2023-05-02T08:31:35;17.75;;;15.20;;
45548;SDS011;31270;48.328;10.096;2023-05-02T08:34:01;21.45;;;16.88;;
45548;SDS011;31270;48.328;10.096;2023-05-02T08:36:27;25.93;;;18.80;;
45548;SDS011;31270;48.328;10.096;2023-05-02T08:38:53;24.63;;;19.15;;
45548;SDS011;31270;48.328;10.096;2023-05-02T08:41:21;24.03;;;18.73;;
45548;SDS011;31270;48.328;10.096;2023-05-02T08:43:47;23.00;;;19.17;;
45548;SDS011;31270;48.328;10.096;2023-05-02T08:46:14;25.77;;;19.10;;
45548;SDS011;31270;48.328;10.096;2023-05-02T08:48:41;25.48;;;18.60;;
45548;SDS011;31270;48.328;10.096;2023-05-02T08:51:12;25.80;;;20.63;;
45548;SDS011;31270;48.328;10.096;2023-05-02T08:53:40;24.85;;;19.85;;
45548;SDS011;31270;48.328;10.096;2023-05-02T08:56:06;24.80;;;19.58;;
45548;SDS011;31270;48.328;10.096;2023-05-02T08:58:33;26.75;;;20.10;;
45548;SDS011;31270;48.328;10.096;2023-05-02T09:01:00;24.15;;;18.77;;
45548;SDS011;31270;48.328;10.096;2023-05-02T09:08:35;19.70;;;16.40;;
45548;SDS011;31270;48.328;10.096;2023-05-02T09:11:02;18.60;;;15.93;;
45548;SDS011;31270;48.328;10.096;2023-05-02T09:13:38;17.45;;;14.77;;
45548;SDS011;31270;48.328;10.096;2023-05-02T09:16:06;15.23;;;13.32;;
45548;SDS011;31270;48.328;10.096;2023-05-02T09:18:36;15.20;;;12.93;;
45548;SDS011;31270;48.328;10.096;2023-05-02T09:21:07;15.70;;;13.35;;
45548;SDS011;31270;48.328;10.096;2023-05-02T09:23:41;16.38;;;12.50;;
45548;SDS011;31270;48.328;10.096;2023-05-02T09:26:12;15.82;;;13.52;;
45548;SDS011;31270;48.328;10.096;2023-05-02T09:28:47;14.20;;;11.93;;
45548;SDS011;31270;48.328;10.096;2023-05-02T09:31:14;17.08;;;12.77;;
45548;SDS011;31270;48.328;10.096;2023-05-02T09:33:45;16.90;;;14.07;;
45548;SDS011;31270;48.328;10.096;2023-05-02T09:36:12;14.32;;;12.85;;
45548;SDS011;31270;48.328;10.096;2023-05-02T09:38:39;15.50;;;12.27;;
45548;SDS011;31270;48.328;10.096;2023-05-02T09:41:07;13.52;;;12.07;;
45548;SDS011;31270;48.328;10.096;2023-05-02T09:43:35;13.95;;;11.77;;
45548;SDS011;31270;48.328;10.096;2023-05-02T09:46:05;14.95;;;11.80;;
45548;SDS011;31270;48.328;10.096;2023-05-02T09:48:32;16.05;;;11.55;;
45548;SDS011;31270;48.328;10.096;2023-05-02T09:51:17;13.77;;;11.75;;
45548;SDS011;31270;48.328;10.096;2023-05-02T09:53:44;14.18;;;12.68;;
45548;SDS011;31270;48.328;10.096;2023-05-02T09:56:10;14.00;;;11.90;;
45548;SDS011;31270;48.328;10.096;2023-05-02T09:58:35;13.90;;;11.00;;
45548;SDS011;31270;48.328;10.096;2023-05-02T10:01:01;13.80;;;12.07;;
45548;SDS011;31270;48.328;10.096;2023-05-02T10:03:27;13.25;;;11.60;;
45548;SDS011;31270;48.328;10.096;2023-05-02T10:05:54;12.75;;;11.32;;
45548;SDS011;31270;48.328;10.096;2023-05-02T10:08:23;15.98;;;11.73;;
45548;SDS011;31270;48.328;10.096;2023-05-02T10:10:55;14.30;;;11.05;;
45548;SDS011;31270;48.328;10.096;2023-05-02T10:13:23;13.30;;;11.20;;
45548;SDS011;31270;48.328;10.096;2023-05-02T10:15:57;13.25;;;11.85;;
45548;SDS011;31270;48.328;10.096;2023-05-02T10:18:45;12.50;;;11.20;;
45548;SDS011;31270;48.328;10.096;2023-05-02T10:21:31;13.13;;;11.07;;
45548;SDS011;31270;48.328;10.096;2023-05-02T10:23:59;14.73;;;13.00;;
45548;SDS011;31270;48.328;10.096;2023-05-02T10:26:27;13.65;;;12.25;;
45548;SDS011;31270;48.328;10.096;2023-05-02T10:28:54;15.63;;;11.93;;
45548;SDS011;31270;48.328;10.096;2023-05-02T10:31:20;14.32;;;11.70;;
45548;SDS011;31270;48.328;10.096;2023-05-02T10:33:47;14.38;;;11.57;;
45548;SDS011;31270;48.328;10.096;2023-05-02T10:36:15;12.38;;;11.07;;
45548;SDS011;31270;48.328;10.096;2023-05-02T10:38:47;11.68;;;10.45;;
45548;SDS011;31270;48.328;10.096;2023-05-02T10:41:15;12.85;;;9.95;;
45548;SDS011;31270;48.328;10.096;2023-05-02T10:43:46;12.48;;;10.65;;
45548;SDS011;31270;48.328;10.096;2023-05-02T10:49:05;12.43;;;10.50;;
45548;SDS011;31270;48.328;10.096;2023-05-02T10:51:31;15.20;;;11.82;;
45548;SDS011;31270;48.328;10.096;2023-05-02T11:02:03;13.02;;;10.07;;
45548;SDS011;31270;48.328;10.096;2023-05-02T11:07:23;12.60;;;11.13;;
45548;SDS011;31270;48.328;10.096;2023-05-02T11:09:49;11.30;;;10.20;;
45548;SDS011;31270;48.328;10.096;2023-05-02T11:13:00;12.90;;;11.45;;
45548;SDS011;31270;48.328;10.096;2023-05-02T11:20:31;13.75;;;10.85;;
45548;SDS011;31270;48.328;10.096;2023-05-02T11:25:39;13.70;;;12.30;;
45548;SDS011;31270;48.328;10.096;2023-05-02T11:31:01;12.45;;;11.10;;
45548;SDS011;31270;48.328;10.096;2023-05-02T11:33:28;12.93;;;11.52;;
45548;SDS011;31270;48.328;10.096;2023-05-02T11:35:53;11.80;;;10.63;;
45548;SDS011;31270;48.328;10.096;2023-05-02T11:38:22;12.38;;;11.02;;
45548;SDS011;31270;48.328;10.096;2023-05-02T11:40:49;10.63;;;9.52;;
45548;SDS011;31270;48.328;10.096;2023-05-02T11:43:41;13.50;;;11.10;;
45548;SDS011;31270;48.328;10.096;2023-05-02T11:46:07;13.52;;;11.43;;
45548;SDS011;31270;48.328;10.096;2023-05-02T11:48:33;11.95;;;10.73;;
45548;SDS011;31270;48.328;10.096;2023-05-02T11:51:00;12.43;;;11.20;;
45548;SDS011;31270;48.328;10.096;2023-05-02T11:53:31;11.52;;;10.43;;
45548;SDS011;31270;48.328;10.096;2023-05-02T11:55:58;10.98;;;9.85;;
45548;SDS011;31270;48.328;10.096;2023-05-02T11:58:28;12.65;;;11.35;;
45548;SDS011;31270;48.328;10.096;2023-05-02T12:00:56;11.38;;;9.77;;
45548;SDS011;31270;48.328;10.096;2023-05-02T12:05:51;9.98;;;8.98;;
45548;SDS011;31270;48.328;10.096;2023-05-02T12:08:21;10.82;;;9.25;;
45548;SDS011;31270;48.328;10.096;2023-05-02T12:10:48;9.48;;;8.43;;
45548;SDS011;31270;48.328;10.096;2023-05-02T12:13:15;8.98;;;8.07;;
45548;SDS011;31270;48.328;10.096;2023-05-02T12:15:41;8.80;;;8.00;;
45548;SDS011;31270;48.328;10.096;2023-05-02T12:18:07;10.75;;;9.30;;
45548;SDS011;31270;48.328;10.096;2023-05-02T12:20:33;9.18;;;8.27;;
45548;SDS011;31270;48.328;10.096;2023-05-02T12:22:59;9.10;;;7.63;;
45548;SDS011;31270;48.328;10.096;2023-05-02T12:25:25;10.68;;;9.57;;
45548;SDS011;31270;48.328;10.096;2023-05-02T12:27:57;11.13;;;10.02;;
45548;SDS011;31270;48.328;10.096;2023-05-02T12:30:27;11.35;;;10.25;;
45548;SDS011;31270;48.328;10.096;2023-05-02T12:32:56;16.13;;;10.85;;
45548;SDS011;31270;48.328;10.096;2023-05-02T12:35:24;12.60;;;11.30;;
45548;SDS011;31270;48.328;10.096;2023-05-02T12:37:50;11.95;;;10.77;;
45548;SDS011;31270;48.328;10.096;2023-05-02T12:40:17;11.27;;;10.10;;
45548;SDS011;31270;48.328;10.096;2023-05-02T12:42:43;13.10;;;8.23;;
45548;SDS011;31270;48.328;10.096;2023-05-02T12:45:23;9.48;;;7.72;;
45548;SDS011;31270;48.328;10.096;2023-05-02T12:47:53;6.28;;;5.68;;
45548;SDS011;31270;48.328;10.096;2023-05-02T12:50:18;7.13;;;5.50;;
45548;SDS011;31270;48.328;10.096;2023-05-02T12:52:45;7.07;;;6.38;;
45548;SDS011;31270;48.328;10.096;2023-05-02T12:55:19;6.90;;;6.05;;
45548;SDS011;31270;48.328;10.096;2023-05-02T12:57:49;7.55;;;6.80;;
45548;SDS011;31270;48.328;10.096;2023-05-02T13:00:16;8.23;;;6.80;;
45548;SDS011;31270;48.328;10.096;2023-05-02T13:02:44;9.35;;;7.85;;
45548;SDS011;31270;48.328;10.096;2023-05-02T13:05:13;8.32;;;7.43;;
45548;SDS011;31270;48.328;10.096;2023-05-02T13:07:39;8.43;;;7.63;;
45548;SDS011;31270;48.328;10.096;2023-05-02T13:10:06;8.30;;;7.50;;
45548;SDS011;31270;48.328;10.096;2023-05-02T13:12:32;8.27;;;6.63;;
45548;SDS011;31270;48.328;10.096;2023-05-02T13:15:01;7.78;;;7.05;;
45548;SDS011;31270;48.328;10.096;2023-05-02T13:17:28;8.48;;;7.07;;
45548;SDS011;31270;48.328;10.096;2023-05-02T13:19:54;10.25;;;8.32;;
45548;SDS011;31270;48.328;10.096;2023-05-02T13:22:20;9.60;;;8.60;;
45548;SDS011;31270;48.328;10.096;2023-05-02T13:24:46;8.77;;;7.95;;
45548;SDS011;31270;48.328;10.096;2023-05-02T13:27:11;9.68;;;8.10;;
45548;SDS011;31270;48.328;10.096;2023-05-02T13:29:37;9.57;;;7.93;;
45548;SDS011;31270;48.328;10.096;2023-05-02T13:32:02;8.90;;;8.00;;
45548;SDS011;31270;48.328;10.096;2023-05-02T13:34:28;8.60;;;7.80;;
45548;SDS011;31270;48.328;10.096;2023-05-02T13:36:54;8.93;;;8.02;;
45548;SDS011;31270;48.328;10.096;2023-05-02T13:39:19;10.43;;;8.98;;
45548;SDS011;31270;48.328;10.096;2023-05-02T13:41:45;10.43;;;8.50;;
45548;SDS011;31270;48.328;10.096;2023-05-02T13:44:10;9.30;;;8.02;;
45548;SDS011;31270;48.328;10.096;2023-05-02T13:46:36;9.82;;;7.95;;
45548;SDS011;31270;48.328;10.096;2023-05-02T13:49:05;9.20;;;8.27;;
45548;SDS011;31270;48.328;10.096;2023-05-02T13:51:31;9.20;;;8.20;;
45548;SDS011;31270;48.328;10.096;2023-05-02T13:53:57;9.13;;;8.23;;
45548;SDS011;31270;48.328;10.096;2023-05-02T13:56:23;11.25;;;8.50;;
45548;SDS011;31270;48.328;10.096;2023-05-02T13:58:50;8.65;;;7.85;;
45548;SDS011;31270;48.328;10.096;2023-05-02T14:01:15;9.20;;;7.60;;
45548;SDS011;31270;48.328;10.096;2023-05-02T14:03:41;9.35;;;8.38;;
45548;SDS011;31270;48.328;10.096;2023-05-02T14:06:07;8.68;;;7.88;;
45548;SDS011;31270;48.328;10.096;2023-05-02T14:08:33;8.48;;;7.68;;
45548;SDS011;31270;48.328;10.096;2023-05-02T14:10:59;9.07;;;8.07;;
45548;SDS011;31270;48.328;10.096;2023-05-02T14:13:25;9.80;;;8.85;;
45548;SDS011;31270;48.328;10.096;2023-05-02T14:15:52;9.80;;;8.15;;
45548;SDS011;31270;48.328;10.096;2023-05-02T14:18:18;10.90;;;8.45;;
45548;SDS011;31270;48.328;10.096;2023-05-02T14:20:44;10.27;;;8.43;;
45548;SDS011;31270;48.328;10.096;2023-05-02T14:23:09;9.10;;;8.20;;
45548;SDS011;31270;48.328;10.096;2023-05-02T14:25:35;13.18;;;8.93;;
45548;SDS011;31270;48.328;10.096;2023-05-02T14:28:01;10.70;;;9.05;;
45548;SDS011;31270;48.328;10.096;2023-05-02T14:30:28;10.82;;;9.57;;
45548;SDS011;31270;48.328;10.096;2023-05-02T14:32:54;10.50;;;8.90;;
45548;SDS011;31270;48.328;10.096;2023-05-02T14:35:20;12.18;;;8.90;;
45548;SDS011;31270;48.328;10.096;2023-05-02T14:37:45;11.18;;;9.82;;
45548;SDS011;31270;48.328;10.096;2023-05-02T14:40:11;11.68;;;10.48;;
45548;SDS011;31270;48.328;10.096;2023-05-02T14:42:38;10.65;;;9.60;;
45548;SDS011;31270;48.328;10.096;2023-05-02T14:45:10;10.35;;;9.35;;
45548;SDS011;31270;48.328;10.096;2023-05-02T14:47:36;10.65;;;8.82;;
45548;SDS011;31270;48.328;10.096;2023-05-02T14:50:02;8.35;;;7.55;;
45548;SDS011;31270;48.328;10.096;2023-05-02T14:52:29;10.32;;;8.70;;
45548;SDS011;31270;48.328;10.096;2023-05-02T14:54:57;13.35;;;8.27;;
45548;SDS011;31270;48.328;10.096;2023-05-02T14:57:23;7.93;;;7.13;;
45548;SDS011;31270;48.328;10.096;2023-05-02T14:59:49;8.68;;;7.72;;
45548;SDS011;31270;48.328;10.096;2023-05-02T15:02:15;7.35;;;6.40;;
45548;SDS011;31270;48.328;10.096;2023-05-02T15:04:40;7.60;;;5.72;;
45548;SDS011;31270;48.328;10.096;2023-05-02T15:07:06;6.85;;;5.63;;